Airfield :
LOGIN :

Register | Disclaimer

   EN    FR    IT 

 










Legend :    VFR   Marginal VFR   IFR   Intensive IFR   Very Intensive IFR
Visi :
Ceiling :
>= 8 km
>= 3000ft
5 to 8 km
1000 to 3000 ft
1500m to 5 km
500 to 1000 ft
800 to 1500m
200 to 500 ft
< 800m
< 200 ft
Symbols :   Thunderstorms  Fog  Heavy snow  Heavy precipitations  Wind > 20 kt
SIGMETs :     Misc.  Thunderstorms  Icing  Turbulence  Mountain Waves  Volcanic Ashes







- Airport Elevation : 82 ft
- IATA code : ALG


DAAG - Alger Houari Boumedienne

CURRENT METAR :
  • 180730Z 18002KT 0800 R05/0450V0800 R09/P2000N MIFG FEW006 04/04 Q1024

EXPIRED METARs :
  • 180700Z 15003KT 0800 R05/0450N R09/P2000D MIFG FEW006 03/03 Q1024
  • 180630Z 10003KT 6000 1000N R05/0700V1700U R09/P2000D BR FEW010 03/03 Q1024
  • 180600Z 22001KT 6000 FEW010 FEW010 03/03 Q1024
  • 180530Z VRB02KT 1200 R05/0400V0750N R09/1700VP2000U BR FEW006 04/04 Q1024
  • 180500Z 17003KT 0300 R05/0450N R09/0650VP2000U FG SCT006 04/04 Q1024

TAF AMD TAF DAAG
Valid from the 18 at 06:00 until the 19 at 06:00 UTC


180617Z 1806/1906 VRB02KT 6000 FEW012
PROB40
TEMPO 1806/1810 3000 BR
PROB30
TEMPO 1806/1808 0600 FG
BECMG 1809/1812 04010KT
BECMG 1818/1821 VRB02KT
TEMPO 1820/1824 19010KT
No reported NOTAMs for that airfield.



MET'MAP, your aeronautical weather chart ! - Copyright ORBIFLY December 2007 - Disclaimer

ORBIFLY MET'MAP TEAM :

Programming & Development : Alexandra Zaïnal
Concept & Development : Baudouin d'Aumeries
Co-Development & Prog : Marc-Olivier Méhu
Technical & hardware support : Manuel Goepfert

Contact : metmap@orbifly.com




SOURCES & CREDITS :

   NOAA